sensor_id;sensor_type;location;lat;lon;timestamp;temperature;humidity
19437;DHT22;9854;50.968;4.168;2022-08-19T00:01:46;21.50;99.90
19437;DHT22;9854;50.968;4.168;2022-08-19T00:04:14;21.50;99.90
19437;DHT22;9854;50.968;4.168;2022-08-19T00:06:41;21.60;99.90
19437;DHT22;9854;50.968;4.168;2022-08-19T00:09:09;21.50;99.90
19437;DHT22;9854;50.968;4.168;2022-08-19T00:11:36;21.50;99.90
19437;DHT22;9854;50.968;4.168;2022-08-19T00:14:04;21.70;99.90
19437;DHT22;9854;50.968;4.168;2022-08-19T00:16:30;21.80;99.90
19437;DHT22;9854;50.968;4.168;2022-08-19T00:18:56;21.70;99.90
19437;DHT22;9854;50.968;4.168;2022-08-19T00:21:26;21.80;99.90
19437;DHT22;9854;50.968;4.168;2022-08-19T00:23:55;21.70;99.90
19437;DHT22;9854;50.968;4.168;2022-08-19T00:26:24;21.70;99.90
19437;DHT22;9854;50.968;4.168;2022-08-19T00:28:50;21.60;99.90
19437;DHT22;9854;50.968;4.168;2022-08-19T00:31:15;21.50;99.90
19437;DHT22;9854;50.968;4.168;2022-08-19T00:33:41;21.50;99.90
19437;DHT22;9854;50.968;4.168;2022-08-19T00:36:11;21.50;99.90
19437;DHT22;9854;50.968;4.168;2022-08-19T00:38:39;21.60;99.90
19437;DHT22;9854;50.968;4.168;2022-08-19T00:41:09;21.60;99.90
19437;DHT22;9854;50.968;4.168;2022-08-19T00:43:35;21.70;99.90
19437;DHT22;9854;50.968;4.168;2022-08-19T00:46:01;21.70;99.90
19437;DHT22;9854;50.968;4.168;2022-08-19T00:48:30;21.60;99.90
19437;DHT22;9854;50.968;4.168;2022-08-19T00:50:57;21.60;99.90
19437;DHT22;9854;50.968;4.168;2022-08-19T00:53:26;21.60;99.90
19437;DHT22;9854;50.968;4.168;2022-08-19T00:55:54;21.50;99.90
19437;DHT22;9854;50.968;4.168;2022-08-19T00:58:23;21.50;99.90
19437;DHT22;9854;50.968;4.168;2022-08-19T01:00:50;21.50;99.90
19437;DHT22;9854;50.968;4.168;2022-08-19T01:03:19;21.30;99.90
19437;DHT22;9854;50.968;4.168;2022-08-19T01:05:45;21.40;99.90
19437;DHT22;9854;50.968;4.168;2022-08-19T01:08:14;21.50;99.90
19437;DHT22;9854;50.968;4.168;2022-08-19T01:10:43;21.60;99.90
19437;DHT22;9854;50.968;4.168;2022-08-19T01:13:10;21.60;99.90
19437;DHT22;9854;50.968;4.168;2022-08-19T01:15:47;21.50;99.90
19437;DHT22;9854;50.968;4.168;2022-08-19T01:18:15;21.30;99.90
19437;DHT22;9854;50.968;4.168;2022-08-19T01:20:42;21.50;99.90
19437;DHT22;9854;50.968;4.168;2022-08-19T01:23:08;21.50;99.90
19437;DHT22;9854;50.968;4.168;2022-08-19T01:25:51;21.20;99.90
19437;DHT22;9854;50.968;4.168;2022-08-19T01:28:19;21.00;99.90
19437;DHT22;9854;50.968;4.168;2022-08-19T01:30:45;20.90;99.90
19437;DHT22;9854;50.968;4.168;2022-08-19T01:33:12;21.00;99.90
19437;DHT22;9854;50.968;4.168;2022-08-19T01:35:38;21.00;99.90
19437;DHT22;9854;50.968;4.168;2022-08-19T01:38:07;20.80;99.90
19437;DHT22;9854;50.968;4.168;2022-08-19T01:40:36;20.60;99.90
19437;DHT22;9854;50.968;4.168;2022-08-19T01:43:02;20.50;99.90
19437;DHT22;9854;50.968;4.168;2022-08-19T01:45:31;20.40;99.90
19437;DHT22;9854;50.968;4.168;2022-08-19T01:47:57;20.60;99.90
19437;DHT22;9854;50.968;4.168;2022-08-19T01:50:24;20.50;99.90
19437;DHT22;9854;50.968;4.168;2022-08-19T01:52:49;20.40;99.90
19437;DHT22;9854;50.968;4.168;2022-08-19T01:55:20;20.50;99.90
19437;DHT22;9854;50.968;4.168;2022-08-19T01:57:48;20.40;99.90
19437;DHT22;9854;50.968;4.168;2022-08-19T02:00:17;20.50;99.90
19437;DHT22;9854;50.968;4.168;2022-08-19T02:02:43;20.60;99.90
19437;DHT22;9854;50.968;4.168;2022-08-19T02:05:09;20.40;99.90
19437;DHT22;9854;50.968;4.168;2022-08-19T02:07:36;20.30;99.90
19437;DHT22;9854;50.968;4.168;2022-08-19T02:10:04;20.20;99.90
19437;DHT22;9854;50.968;4.168;2022-08-19T02:12:30;20.20;99.90
19437;DHT22;9854;50.968;4.168;2022-08-19T02:14:55;20.10;99.90
19437;DHT22;9854;50.968;4.168;2022-08-19T02:17:21;20.20;99.90
19437;DHT22;9854;50.968;4.168;2022-08-19T02:19:46;20.30;99.90
19437;DHT22;9854;50.968;4.168;2022-08-19T02:22:14;20.20;99.90
19437;DHT22;9854;50.968;4.168;2022-08-19T02:24:39;20.20;99.90
19437;DHT22;9854;50.968;4.168;2022-08-19T02:27:05;20.20;99.90
19437;DHT22;9854;50.968;4.168;2022-08-19T02:29:31;20.20;99.90
19437;DHT22;9854;50.968;4.168;2022-08-19T02:31:57;20.10;99.90
19437;DHT22;9854;50.968;4.168;2022-08-19T02:34:23;20.20;99.90
19437;DHT22;9854;50.968;4.168;2022-08-19T02:36:50;20.10;99.90
19437;DHT22;9854;50.968;4.168;2022-08-19T02:39:16;20.00;99.90
19437;DHT22;9854;50.968;4.168;2022-08-19T02:41:41;20.00;99.90
19437;DHT22;9854;50.968;4.168;2022-08-19T02:44:07;20.10;99.90
19437;DHT22;9854;50.968;4.168;2022-08-19T02:46:33;19.90;99.90
19437;DHT22;9854;50.968;4.168;2022-08-19T02:49:04;19.90;99.90
19437;DHT22;9854;50.968;4.168;2022-08-19T02:51:36;19.80;99.90
19437;DHT22;9854;50.968;4.168;2022-08-19T02:54:03;19.80;99.90
19437;DHT22;9854;50.968;4.168;2022-08-19T02:56:29;19.90;99.90
19437;DHT22;9854;50.968;4.168;2022-08-19T02:58:56;19.80;99.90
19437;DHT22;9854;50.968;4.168;2022-08-19T03:01:25;19.70;99.90
19437;DHT22;9854;50.968;4.168;2022-08-19T03:03:52;19.70;99.90
19437;DHT22;9854;50.968;4.168;2022-08-19T03:06:19;19.90;99.90
19437;DHT22;9854;50.968;4.168;2022-08-19T03:08:46;19.70;99.90
19437;DHT22;9854;50.968;4.168;2022-08-19T03:11:28;19.80;99.90
19437;DHT22;9854;50.968;4.168;2022-08-19T03:13:54;19.70;99.90
19437;DHT22;9854;50.968;4.168;2022-08-19T03:16:22;19.70;99.90
19437;DHT22;9854;50.968;4.168;2022-08-19T03:18:48;19.60;99.90
19437;DHT22;9854;50.968;4.168;2022-08-19T03:21:19;19.40;99.90
19437;DHT22;9854;50.968;4.168;2022-08-19T03:23:45;19.40;99.90
19437;DHT22;9854;50.968;4.168;2022-08-19T03:26:11;19.50;99.90
19437;DHT22;9854;50.968;4.168;2022-08-19T03:28:37;19.70;99.90
19437;DHT22;9854;50.968;4.168;2022-08-19T03:31:06;19.30;99.90
19437;DHT22;9854;50.968;4.168;2022-08-19T03:33:33;19.40;99.90
19437;DHT22;9854;50.968;4.168;2022-08-19T03:36:13;19.20;99.90
19437;DHT22;9854;50.968;4.168;2022-08-19T03:38:42;19.10;99.90
19437;DHT22;9854;50.968;4.168;2022-08-19T03:41:11;19.10;99.90
19437;DHT22;9854;50.968;4.168;2022-08-19T03:43:38;19.10;99.90
19437;DHT22;9854;50.968;4.168;2022-08-19T03:46:07;18.90;99.90
19437;DHT22;9854;50.968;4.168;2022-08-19T03:48:34;18.80;99.90
19437;DHT22;9854;50.968;4.168;2022-08-19T03:51:00;18.90;99.90
19437;DHT22;9854;50.968;4.168;2022-08-19T03:53:27;18.90;99.90
19437;DHT22;9854;50.968;4.168;2022-08-19T03:55:54;18.70;99.90
19437;DHT22;9854;50.968;4.168;2022-08-19T03:58:20;18.70;99.90
19437;DHT22;9854;50.968;4.168;2022-08-19T04:00:46;18.50;99.90
19437;DHT22;9854;50.968;4.168;2022-08-19T04:03:12;18.50;99.90
19437;DHT22;9854;50.968;4.168;2022-08-19T04:05:38;18.70;99.90
19437;DHT22;9854;50.968;4.168;2022-08-19T04:08:04;18.60;99.90
19437;DHT22;9854;50.968;4.168;2022-08-19T04:10:34;18.70;99.90
19437;DHT22;9854;50.968;4.168;2022-08-19T04:13:00;18.90;99.90
19437;DHT22;9854;50.968;4.168;2022-08-19T04:15:26;18.80;99.90
19437;DHT22;9854;50.968;4.168;2022-08-19T04:17:52;18.70;99.90
19437;DHT22;9854;50.968;4.168;2022-08-19T04:20:18;18.90;99.90
19437;DHT22;9854;50.968;4.168;2022-08-19T04:22:44;18.90;99.90
19437;DHT22;9854;50.968;4.168;2022-08-19T04:25:10;18.80;99.90
19437;DHT22;9854;50.968;4.168;2022-08-19T04:27:35;18.80;99.90
19437;DHT22;9854;50.968;4.168;2022-08-19T04:30:01;18.60;99.90
19437;DHT22;9854;50.968;4.168;2022-08-19T04:32:27;18.70;99.90
19437;DHT22;9854;50.968;4.168;2022-08-19T04:34:52;18.40;99.90
19437;DHT22;9854;50.968;4.168;2022-08-19T04:37:18;18.20;99.90
19437;DHT22;9854;50.968;4.168;2022-08-19T04:39:44;18.30;99.90
19437;DHT22;9854;50.968;4.168;2022-08-19T04:42:28;18.10;99.90
19437;DHT22;9854;50.968;4.168;2022-08-19T04:45:08;18.10;99.90
19437;DHT22;9854;50.968;4.168;2022-08-19T04:47:39;18.00;99.90
19437;DHT22;9854;50.968;4.168;2022-08-19T04:50:05;18.20;99.90
19437;DHT22;9854;50.968;4.168;2022-08-19T04:52:31;18.10;99.90
19437;DHT22;9854;50.968;4.168;2022-08-19T04:54:58;18.20;99.90
19437;DHT22;9854;50.968;4.168;2022-08-19T04:57:24;18.10;99.90
19437;DHT22;9854;50.968;4.168;2022-08-19T04:59:53;18.20;99.90
19437;DHT22;9854;50.968;4.168;2022-08-19T05:02:19;18.20;99.90
19437;DHT22;9854;50.968;4.168;2022-08-19T05:04:45;18.10;99.90
19437;DHT22;9854;50.968;4.168;2022-08-19T05:07:10;18.30;99.90
19437;DHT22;9854;50.968;4.168;2022-08-19T05:09:37;18.20;99.90
19437;DHT22;9854;50.968;4.168;2022-08-19T05:12:03;18.30;99.90
19437;DHT22;9854;50.968;4.168;2022-08-19T05:14:28;18.40;99.90
19437;DHT22;9854;50.968;4.168;2022-08-19T05:16:54;18.40;99.90
19437;DHT22;9854;50.968;4.168;2022-08-19T05:19:20;18.40;99.90
19437;DHT22;9854;50.968;4.168;2022-08-19T05:22:04;18.30;99.90
19437;DHT22;9854;50.968;4.168;2022-08-19T05:24:48;18.40;99.90
19437;DHT22;9854;50.968;4.168;2022-08-19T05:27:14;18.30;99.90
19437;DHT22;9854;50.968;4.168;2022-08-19T05:29:39;18.10;99.90
19437;DHT22;9854;50.968;4.168;2022-08-19T05:32:06;18.10;99.90
19437;DHT22;9854;50.968;4.168;2022-08-19T05:34:36;18.20;99.90
19437;DHT22;9854;50.968;4.168;2022-08-19T05:37:04;18.30;99.90
19437;DHT22;9854;50.968;4.168;2022-08-19T05:39:31;18.40;99.90
19437;DHT22;9854;50.968;4.168;2022-08-19T05:42:00;18.50;99.90
19437;DHT22;9854;50.968;4.168;2022-08-19T05:44:27;18.50;99.90
19437;DHT22;9854;50.968;4.168;2022-08-19T05:46:57;18.70;99.90
19437;DHT22;9854;50.968;4.168;2022-08-19T05:49:24;18.60;99.90
19437;DHT22;9854;50.968;4.168;2022-08-19T05:51:51;18.50;99.90
19437;DHT22;9854;50.968;4.168;2022-08-19T05:54:18;18.60;99.90
19437;DHT22;9854;50.968;4.168;2022-08-19T05:56:44;18.60;99.90
19437;DHT22;9854;50.968;4.168;2022-08-19T05:59:13;18.70;99.90
19437;DHT22;9854;50.968;4.168;2022-08-19T06:01:41;18.60;99.90
19437;DHT22;9854;50.968;4.168;2022-08-19T06:04:07;18.60;99.90
19437;DHT22;9854;50.968;4.168;2022-08-19T06:06:34;18.80;99.90
19437;DHT22;9854;50.968;4.168;2022-08-19T06:09:05;18.80;99.90
19437;DHT22;9854;50.968;4.168;2022-08-19T06:11:43;18.60;99.90
19437;DHT22;9854;50.968;4.168;2022-08-19T06:14:14;18.80;99.90
19437;DHT22;9854;50.968;4.168;2022-08-19T06:16:41;18.90;99.90
19437;DHT22;9854;50.968;4.168;2022-08-19T06:19:11;19.10;99.90
19437;DHT22;9854;50.968;4.168;2022-08-19T06:21:39;19.00;99.90
19437;DHT22;9854;50.968;4.168;2022-08-19T06:24:09;19.10;99.90
19437;DHT22;9854;50.968;4.168;2022-08-19T06:26:36;19.10;99.90
19437;DHT22;9854;50.968;4.168;2022-08-19T06:29:07;19.20;99.90
19437;DHT22;9854;50.968;4.168;2022-08-19T06:31:34;19.20;99.90
19437;DHT22;9854;50.968;4.168;2022-08-19T06:34:02;19.40;99.90
19437;DHT22;9854;50.968;4.168;2022-08-19T06:36:40;19.40;99.90
19437;DHT22;9854;50.968;4.168;2022-08-19T06:39:10;19.40;99.90
19437;DHT22;9854;50.968;4.168;2022-08-19T06:41:43;19.40;99.90
19437;DHT22;9854;50.968;4.168;2022-08-19T06:44:09;19.30;99.90
19437;DHT22;9854;50.968;4.168;2022-08-19T06:46:36;19.40;99.90
19437;DHT22;9854;50.968;4.168;2022-08-19T06:49:02;19.50;99.90
19437;DHT22;9854;50.968;4.168;2022-08-19T06:51:28;19.50;99.90
19437;DHT22;9854;50.968;4.168;2022-08-19T06:53:55;19.50;99.90
19437;DHT22;9854;50.968;4.168;2022-08-19T06:56:27;19.70;99.90
19437;DHT22;9854;50.968;4.168;2022-08-19T06:59:07;19.70;99.90
19437;DHT22;9854;50.968;4.168;2022-08-19T07:01:39;20.00;99.90
19437;DHT22;9854;50.968;4.168;2022-08-19T07:04:06;20.10;99.90
19437;DHT22;9854;50.968;4.168;2022-08-19T07:06:34;20.20;99.90
19437;DHT22;9854;50.968;4.168;2022-08-19T07:09:00;20.20;99.90
19437;DHT22;9854;50.968;4.168;2022-08-19T07:11:26;20.30;99.90
19437;DHT22;9854;50.968;4.168;2022-08-19T07:13:52;20.20;99.90
19437;DHT22;9854;50.968;4.168;2022-08-19T07:16:19;20.10;99.90
19437;DHT22;9854;50.968;4.168;2022-08-19T07:18:47;20.50;99.90
19437;DHT22;9854;50.968;4.168;2022-08-19T07:21:17;20.70;99.90
19437;DHT22;9854;50.968;4.168;2022-08-19T07:23:44;20.80;99.90
19437;DHT22;9854;50.968;4.168;2022-08-19T07:26:15;20.70;99.90
19437;DHT22;9854;50.968;4.168;2022-08-19T07:28:41;20.80;99.90
19437;DHT22;9854;50.968;4.168;2022-08-19T07:31:14;20.80;99.90
19437;DHT22;9854;50.968;4.168;2022-08-19T07:33:41;21.20;99.90
19437;DHT22;9854;50.968;4.168;2022-08-19T07:36:10;21.20;99.90
19437;DHT22;9854;50.968;4.168;2022-08-19T07:38:43;21.30;99.90
19437;DHT22;9854;50.968;4.168;2022-08-19T07:41:13;21.50;99.90
19437;DHT22;9854;50.968;4.168;2022-08-19T07:43:39;21.50;99.90
19437;DHT22;9854;50.968;4.168;2022-08-19T07:46:05;21.50;99.90
19437;DHT22;9854;50.968;4.168;2022-08-19T07:48:31;21.40;99.90
19437;DHT22;9854;50.968;4.168;2022-08-19T07:51:00;21.40;99.90
19437;DHT22;9854;50.968;4.168;2022-08-19T07:53:31;21.40;99.90
19437;DHT22;9854;50.968;4.168;2022-08-19T07:55:57;21.50;99.90
19437;DHT22;9854;50.968;4.168;2022-08-19T07:58:27;21.60;99.90
19437;DHT22;9854;50.968;4.168;2022-08-19T08:00:53;21.40;99.90
19437;DHT22;9854;50.968;4.168;2022-08-19T08:03:20;21.50;99.90
19437;DHT22;9854;50.968;4.168;2022-08-19T08:06:07;21.50;99.90
19437;DHT22;9854;50.968;4.168;2022-08-19T08:08:51;21.30;99.90
19437;DHT22;9854;50.968;4.168;2022-08-19T08:11:36;21.30;99.90
19437;DHT22;9854;50.968;4.168;2022-08-19T08:14:01;21.40;99.90
19437;DHT22;9854;50.968;4.168;2022-08-19T08:16:28;21.60;99.90
19437;DHT22;9854;50.968;4.168;2022-08-19T08:18:57;21.40;99.90
19437;DHT22;9854;50.968;4.168;2022-08-19T08:21:23;21.50;99.90
19437;DHT22;9854;50.968;4.168;2022-08-19T08:23:48;21.60;99.90
19437;DHT22;9854;50.968;4.168;2022-08-19T08:26:14;21.60;99.90
19437;DHT22;9854;50.968;4.168;2022-08-19T08:28:40;21.50;99.90
19437;DHT22;9854;50.968;4.168;2022-08-19T08:31:06;21.70;99.90
19437;DHT22;9854;50.968;4.168;2022-08-19T08:33:31;21.80;99.90
19437;DHT22;9854;50.968;4.168;2022-08-19T08:35:57;21.90;99.90
19437;DHT22;9854;50.968;4.168;2022-08-19T08:38:23;21.90;99.90
19437;DHT22;9854;50.968;4.168;2022-08-19T08:40:52;22.00;99.90
19437;DHT22;9854;50.968;4.168;2022-08-19T08:43:33;22.00;99.90
19437;DHT22;9854;50.968;4.168;2022-08-19T08:46:06;21.90;99.90
19437;DHT22;9854;50.968;4.168;2022-08-19T08:51:22;22.10;99.90
19437;DHT22;9854;50.968;4.168;2022-08-19T08:53:51;22.00;99.90
19437;DHT22;9854;50.968;4.168;2022-08-19T08:56:17;22.00;99.90
19437;DHT22;9854;50.968;4.168;2022-08-19T09:01:15;22.80;99.90
19437;DHT22;9854;50.968;4.168;2022-08-19T09:03:42;22.80;99.90
19437;DHT22;9854;50.968;4.168;2022-08-19T09:06:12;22.60;99.90
19437;DHT22;9854;50.968;4.168;2022-08-19T09:08:46;22.60;99.90
19437;DHT22;9854;50.968;4.168;2022-08-19T09:11:40;22.40;99.90
19437;DHT22;9854;50.968;4.168;2022-08-19T09:16:42;22.20;99.90
19437;DHT22;9854;50.968;4.168;2022-08-19T09:19:08;22.00;99.90
19437;DHT22;9854;50.968;4.168;2022-08-19T09:21:36;22.10;99.90
19437;DHT22;9854;50.968;4.168;2022-08-19T09:24:04;22.20;99.90
19437;DHT22;9854;50.968;4.168;2022-08-19T09:26:31;22.30;99.90
19437;DHT22;9854;50.968;4.168;2022-08-19T09:28:58;22.50;99.90
19437;DHT22;9854;50.968;4.168;2022-08-19T09:31:26;22.70;99.90
19437;DHT22;9854;50.968;4.168;2022-08-19T09:33:53;22.70;99.90
19437;DHT22;9854;50.968;4.168;2022-08-19T09:36:23;22.60;99.90
19437;DHT22;9854;50.968;4.168;2022-08-19T09:38:50;22.50;99.90
19437;DHT22;9854;50.968;4.168;2022-08-19T09:41:19;22.30;99.90
19437;DHT22;9854;50.968;4.168;2022-08-19T09:43:47;22.30;99.90
19437;DHT22;9854;50.968;4.168;2022-08-19T09:46:13;22.50;99.90
19437;DHT22;9854;50.968;4.168;2022-08-19T09:48:40;22.50;99.90
19437;DHT22;9854;50.968;4.168;2022-08-19T09:51:08;22.70;99.90
19437;DHT22;9854;50.968;4.168;2022-08-19T09:53:35;23.00;99.90
19437;DHT22;9854;50.968;4.168;2022-08-19T09:56:02;23.20;99.90
19437;DHT22;9854;50.968;4.168;2022-08-19T09:58:28;23.00;99.90
19437;DHT22;9854;50.968;4.168;2022-08-19T10:00:55;23.20;99.90
19437;DHT22;9854;50.968;4.168;2022-08-19T10:03:22;23.20;99.90
19437;DHT22;9854;50.968;4.168;2022-08-19T10:05:48;23.30;99.90
19437;DHT22;9854;50.968;4.168;2022-08-19T10:08:34;23.10;99.90
19437;DHT22;9854;50.968;4.168;2022-08-19T10:11:01;23.20;99.90
19437;DHT22;9854;50.968;4.168;2022-08-19T10:13:29;23.20;99.90
19437;DHT22;9854;50.968;4.168;2022-08-19T10:15:56;23.20;99.90
19437;DHT22;9854;50.968;4.168;2022-08-19T10:18:23;23.40;99.90
19437;DHT22;9854;50.968;4.168;2022-08-19T10:20:50;23.30;99.90
19437;DHT22;9854;50.968;4.168;2022-08-19T10:23:19;23.40;99.90
19437;DHT22;9854;50.968;4.168;2022-08-19T10:25:45;23.60;99.90
19437;DHT22;9854;50.968;4.168;2022-08-19T10:28:11;23.70;99.90
19437;DHT22;9854;50.968;4.168;2022-08-19T10:30:41;23.80;99.90
19437;DHT22;9854;50.968;4.168;2022-08-19T10:33:07;23.80;99.90
19437;DHT22;9854;50.968;4.168;2022-08-19T10:35:34;23.70;99.90
19437;DHT22;9854;50.968;4.168;2022-08-19T10:38:01;23.60;99.90
19437;DHT22;9854;50.968;4.168;2022-08-19T10:40:28;23.40;99.90
19437;DHT22;9854;50.968;4.168;2022-08-19T10:42:54;23.30;99.90
19437;DHT22;9854;50.968;4.168;2022-08-19T10:45:23;23.30;99.90
19437;DHT22;9854;50.968;4.168;2022-08-19T10:47:54;23.50;99.90
19437;DHT22;9854;50.968;4.168;2022-08-19T10:50:19;23.70;99.90
19437;DHT22;9854;50.968;4.168;2022-08-19T10:53:05;23.60;99.90
19437;DHT22;9854;50.968;4.168;2022-08-19T10:55:34;23.40;99.90
19437;DHT22;9854;50.968;4.168;2022-08-19T10:58:19;23.40;99.90
19437;DHT22;9854;50.968;4.168;2022-08-19T11:00:56;23.70;99.90
19437;DHT22;9854;50.968;4.168;2022-08-19T11:03:22;23.50;99.90
19437;DHT22;9854;50.968;4.168;2022-08-19T11:06:01;23.60;99.90
19437;DHT22;9854;50.968;4.168;2022-08-19T11:08:27;23.70;99.90
19437;DHT22;9854;50.968;4.168;2022-08-19T11:10:54;23.70;99.90
19437;DHT22;9854;50.968;4.168;2022-08-19T11:13:24;23.70;99.90
19437;DHT22;9854;50.968;4.168;2022-08-19T11:15:58;23.60;99.90
19437;DHT22;9854;50.968;4.168;2022-08-19T11:18:24;23.70;99.90
19437;DHT22;9854;50.968;4.168;2022-08-19T11:20:50;23.90;99.90
19437;DHT22;9854;50.968;4.168;2022-08-19T11:23:15;24.30;99.90
19437;DHT22;9854;50.968;4.168;2022-08-19T11:25:41;25.00;99.90
19437;DHT22;9854;50.968;4.168;2022-08-19T11:28:06;25.10;99.90
19437;DHT22;9854;50.968;4.168;2022-08-19T11:30:32;25.20;99.90
19437;DHT22;9854;50.968;4.168;2022-08-19T11:32:59;25.20;99.90
19437;DHT22;9854;50.968;4.168;2022-08-19T11:35:26;25.00;99.90
19437;DHT22;9854;50.968;4.168;2022-08-19T11:37:52;25.00;99.90
19437;DHT22;9854;50.968;4.168;2022-08-19T11:40:17;25.20;99.90
19437;DHT22;9854;50.968;4.168;2022-08-19T11:42:43;25.40;99.90
19437;DHT22;9854;50.968;4.168;2022-08-19T11:45:22;25.10;99.90
19437;DHT22;9854;50.968;4.168;2022-08-19T11:47:48;25.00;99.90
19437;DHT22;9854;50.968;4.168;2022-08-19T11:50:15;25.20;99.90
19437;DHT22;9854;50.968;4.168;2022-08-19T11:52:41;25.10;99.90
19437;DHT22;9854;50.968;4.168;2022-08-19T11:55:07;24.90;99.90
19437;DHT22;9854;50.968;4.168;2022-08-19T11:57:33;24.90;99.90
19437;DHT22;9854;50.968;4.168;2022-08-19T11:59:58;25.20;99.90
19437;DHT22;9854;50.968;4.168;2022-08-19T12:02:24;25.30;99.90
19437;DHT22;9854;50.968;4.168;2022-08-19T12:04:50;24.90;99.90
19437;DHT22;9854;50.968;4.168;2022-08-19T12:07:16;24.70;99.90
19437;DHT22;9854;50.968;4.168;2022-08-19T12:09:42;24.90;99.90
19437;DHT22;9854;50.968;4.168;2022-08-19T12:12:08;25.10;99.90
19437;DHT22;9854;50.968;4.168;2022-08-19T12:14:34;25.30;99.90
19437;DHT22;9854;50.968;4.168;2022-08-19T12:17:00;25.30;99.90
19437;DHT22;9854;50.968;4.168;2022-08-19T12:19:27;25.40;99.90
19437;DHT22;9854;50.968;4.168;2022-08-19T12:21:58;25.30;99.90
19437;DHT22;9854;50.968;4.168;2022-08-19T12:24:26;25.30;99.90
19437;DHT22;9854;50.968;4.168;2022-08-19T12:26:51;25.20;99.90
19437;DHT22;9854;50.968;4.168;2022-08-19T12:29:18;25.80;99.90
19437;DHT22;9854;50.968;4.168;2022-08-19T12:31:44;26.00;99.90
19437;DHT22;9854;50.968;4.168;2022-08-19T12:34:09;25.80;99.90
19437;DHT22;9854;50.968;4.168;2022-08-19T12:36:35;25.60;99.90
19437;DHT22;9854;50.968;4.168;2022-08-19T12:39:01;25.30;99.90
19437;DHT22;9854;50.968;4.168;2022-08-19T12:41:26;25.60;99.90
19437;DHT22;9854;50.968;4.168;2022-08-19T12:43:52;26.00;99.90
19437;DHT22;9854;50.968;4.168;2022-08-19T12:46:19;26.00;99.90
19437;DHT22;9854;50.968;4.168;2022-08-19T12:48:45;26.10;99.90
19437;DHT22;9854;50.968;4.168;2022-08-19T12:51:16;26.40;99.90
19437;DHT22;9854;50.968;4.168;2022-08-19T12:53:43;26.60;99.90
19437;DHT22;9854;50.968;4.168;2022-08-19T12:56:10;26.60;99.90
19437;DHT22;9854;50.968;4.168;2022-08-19T12:58:36;26.30;99.90
19437;DHT22;9854;50.968;4.168;2022-08-19T13:01:13;26.30;99.90
19437;DHT22;9854;50.968;4.168;2022-08-19T13:03:39;26.10;99.90
19437;DHT22;9854;50.968;4.168;2022-08-19T13:06:06;26.10;99.90
19437;DHT22;9854;50.968;4.168;2022-08-19T13:08:32;26.40;99.90
19437;DHT22;9854;50.968;4.168;2022-08-19T13:10:57;26.60;99.90
19437;DHT22;9854;50.968;4.168;2022-08-19T13:13:31;26.80;99.90
19437;DHT22;9854;50.968;4.168;2022-08-19T13:16:00;26.50;99.90
19437;DHT22;9854;50.968;4.168;2022-08-19T13:18:28;26.40;99.90
19437;DHT22;9854;50.968;4.168;2022-08-19T13:20:54;26.50;99.90
19437;DHT22;9854;50.968;4.168;2022-08-19T13:23:19;26.40;99.90
19437;DHT22;9854;50.968;4.168;2022-08-19T13:25:55;26.60;99.90
19437;DHT22;9854;50.968;4.168;2022-08-19T13:28:21;26.80;99.90
19437;DHT22;9854;50.968;4.168;2022-08-19T13:30:47;26.50;99.90
19437;DHT22;9854;50.968;4.168;2022-08-19T13:33:31;26.80;99.90
19437;DHT22;9854;50.968;4.168;2022-08-19T13:35:59;26.90;99.90
19437;DHT22;9854;50.968;4.168;2022-08-19T13:38:26;27.10;99.90
19437;DHT22;9854;50.968;4.168;2022-08-19T13:40:53;27.00;99.90
19437;DHT22;9854;50.968;4.168;2022-08-19T13:43:22;26.80;99.90
19437;DHT22;9854;50.968;4.168;2022-08-19T13:45:49;26.90;99.90
19437;DHT22;9854;50.968;4.168;2022-08-19T13:48:15;27.00;99.90
19437;DHT22;9854;50.968;4.168;2022-08-19T13:50:43;27.10;99.90
19437;DHT22;9854;50.968;4.168;2022-08-19T13:53:11;27.20;99.90
19437;DHT22;9854;50.968;4.168;2022-08-19T13:55:38;27.30;99.90
19437;DHT22;9854;50.968;4.168;2022-08-19T13:58:03;27.60;99.90
19437;DHT22;9854;50.968;4.168;2022-08-19T14:00:33;27.30;99.90
19437;DHT22;9854;50.968;4.168;2022-08-19T14:02:59;27.10;99.90
19437;DHT22;9854;50.968;4.168;2022-08-19T14:05:27;26.70;99.90
19437;DHT22;9854;50.968;4.168;2022-08-19T14:07:54;26.30;99.90
19437;DHT22;9854;50.968;4.168;2022-08-19T14:10:21;25.90;99.90
19437;DHT22;9854;50.968;4.168;2022-08-19T14:12:47;25.70;99.90
19437;DHT22;9854;50.968;4.168;2022-08-19T14:15:14;25.30;99.90
19437;DHT22;9854;50.968;4.168;2022-08-19T14:17:44;25.10;99.90
19437;DHT22;9854;50.968;4.168;2022-08-19T14:20:12;25.20;99.90
19437;DHT22;9854;50.968;4.168;2022-08-19T14:22:40;25.30;99.90
19437;DHT22;9854;50.968;4.168;2022-08-19T14:25:09;25.40;99.90
19437;DHT22;9854;50.968;4.168;2022-08-19T14:27:36;25.30;99.90
19437;DHT22;9854;50.968;4.168;2022-08-19T14:30:07;25.20;99.90
19437;DHT22;9854;50.968;4.168;2022-08-19T14:32:34;25.10;99.90
19437;DHT22;9854;50.968;4.168;2022-08-19T14:35:01;25.20;99.90
19437;DHT22;9854;50.968;4.168;2022-08-19T14:37:26;25.40;99.90
19437;DHT22;9854;50.968;4.168;2022-08-19T14:39:52;25.50;99.90
19437;DHT22;9854;50.968;4.168;2022-08-19T14:42:18;25.90;99.90
19437;DHT22;9854;50.968;4.168;2022-08-19T14:44:44;26.00;99.90
19437;DHT22;9854;50.968;4.168;2022-08-19T14:47:10;25.80;99.90
19437;DHT22;9854;50.968;4.168;2022-08-19T14:49:35;25.60;99.90
19437;DHT22;9854;50.968;4.168;2022-08-19T14:52:02;25.70;99.90
19437;DHT22;9854;50.968;4.168;2022-08-19T14:54:29;25.50;99.90
19437;DHT22;9854;50.968;4.168;2022-08-19T14:56:55;25.60;99.90
19437;DHT22;9854;50.968;4.168;2022-08-19T14:59:20;25.40;99.90
19437;DHT22;9854;50.968;4.168;2022-08-19T15:01:46;25.20;99.90
19437;DHT22;9854;50.968;4.168;2022-08-19T15:04:12;24.90;99.90
19437;DHT22;9854;50.968;4.168;2022-08-19T15:06:38;24.90;99.90
19437;DHT22;9854;50.968;4.168;2022-08-19T15:09:04;24.90;99.90
19437;DHT22;9854;50.968;4.168;2022-08-19T15:11:31;24.80;99.90
19437;DHT22;9854;50.968;4.168;2022-08-19T15:13:58;25.20;99.90
19437;DHT22;9854;50.968;4.168;2022-08-19T15:16:25;26.30;99.90
19437;DHT22;9854;50.968;4.168;2022-08-19T15:18:53;27.20;99.90
19437;DHT22;9854;50.968;4.168;2022-08-19T15:21:20;28.30;99.90
19437;DHT22;9854;50.968;4.168;2022-08-19T15:23:47;29.30;99.90
19437;DHT22;9854;50.968;4.168;2022-08-19T15:26:17;30.40;99.90
19437;DHT22;9854;50.968;4.168;2022-08-19T15:28:44;31.10;99.90
19437;DHT22;9854;50.968;4.168;2022-08-19T15:31:12;31.10;99.90
19437;DHT22;9854;50.968;4.168;2022-08-19T15:33:39;30.80;99.90
19437;DHT22;9854;50.968;4.168;2022-08-19T15:36:07;29.80;99.90
19437;DHT22;9854;50.968;4.168;2022-08-19T15:38:33;29.40;99.90
19437;DHT22;9854;50.968;4.168;2022-08-19T15:41:03;28.70;99.90
19437;DHT22;9854;50.968;4.168;2022-08-19T15:43:49;27.60;99.90
19437;DHT22;9854;50.968;4.168;2022-08-19T15:46:20;27.40;99.90
19437;DHT22;9854;50.968;4.168;2022-08-19T15:48:47;27.60;99.90
19437;DHT22;9854;50.968;4.168;2022-08-19T15:51:13;27.70;99.90
19437;DHT22;9854;50.968;4.168;2022-08-19T15:53:39;27.70;99.90
19437;DHT22;9854;50.968;4.168;2022-08-19T15:56:06;27.40;99.90
19437;DHT22;9854;50.968;4.168;2022-08-19T15:58:32;27.00;99.90